sensor_id;sensor_type;location;lat;lon;timestamp;pressure;altitude;pressure_sealevel;temperature
60966;BMP180;46834;51.100;6.886;2023-03-07T00:00:40;99446.00;;;8.60
60966;BMP180;46834;51.100;6.886;2023-03-07T00:03:09;99457.00;;;8.60
60966;BMP180;46834;51.100;6.886;2023-03-07T00:05:35;99475.00;;;8.60
60966;BMP180;46834;51.100;6.886;2023-03-07T00:08:01;99439.00;;;8.60
60966;BMP180;46834;51.100;6.886;2023-03-07T00:10:27;99474.00;;;8.60
60966;BMP180;46834;51.100;6.886;2023-03-07T00:12:53;99456.00;;;8.60
60966;BMP180;46834;51.100;6.886;2023-03-07T00:15:20;99462.00;;;8.60
60966;BMP180;46834;51.100;6.886;2023-03-07T00:17:46;99451.00;;;8.60
60966;BMP180;46834;51.100;6.886;2023-03-07T00:20:11;99439.00;;;8.60
60966;BMP180;46834;51.100;6.886;2023-03-07T00:22:41;99459.00;;;8.60
60966;BMP180;46834;51.100;6.886;2023-03-07T00:25:09;99449.00;;;8.60
60966;BMP180;46834;51.100;6.886;2023-03-07T00:27:35;99446.00;;;8.60
60966;BMP180;46834;51.100;6.886;2023-03-07T00:30:02;99452.00;;;8.60
60966;BMP180;46834;51.100;6.886;2023-03-07T00:32:29;99433.00;;;8.60
60966;BMP180;46834;51.100;6.886;2023-03-07T00:34:57;99433.00;;;8.60
60966;BMP180;46834;51.100;6.886;2023-03-07T00:37:23;99434.00;;;8.60
60966;BMP180;46834;51.100;6.886;2023-03-07T00:39:48;99442.00;;;8.60
60966;BMP180;46834;51.100;6.886;2023-03-07T00:42:14;99442.00;;;8.60
60966;BMP180;46834;51.100;6.886;2023-03-07T00:44:40;99453.00;;;8.60
60966;BMP180;46834;51.100;6.886;2023-03-07T00:47:06;99432.00;;;8.60
60966;BMP180;46834;51.100;6.886;2023-03-07T00:49:31;99430.00;;;8.60
60966;BMP180;46834;51.100;6.886;2023-03-07T00:51:57;99416.00;;;8.60
60966;BMP180;46834;51.100;6.886;2023-03-07T00:54:23;99419.00;;;8.60
60966;BMP180;46834;51.100;6.886;2023-03-07T00:56:48;99419.00;;;8.60
60966;BMP180;46834;51.100;6.886;2023-03-07T00:59:14;99430.00;;;8.60
60966;BMP180;46834;51.100;6.886;2023-03-07T01:01:40;99413.00;;;8.60
60966;BMP180;46834;51.100;6.886;2023-03-07T01:04:06;99421.00;;;8.60
60966;BMP180;46834;51.100;6.886;2023-03-07T01:06:33;99417.00;;;8.60
60966;BMP180;46834;51.100;6.886;2023-03-07T01:09:04;99412.00;;;8.60
60966;BMP180;46834;51.100;6.886;2023-03-07T01:11:36;99418.00;;;8.60
60966;BMP180;46834;51.100;6.886;2023-03-07T01:14:04;99417.00;;;8.60
60966;BMP180;46834;51.100;6.886;2023-03-07T01:16:35;99404.00;;;8.60
60966;BMP180;46834;51.100;6.886;2023-03-07T01:19:04;99424.00;;;8.60
60966;BMP180;46834;51.100;6.886;2023-03-07T01:21:39;99400.00;;;8.60
60966;BMP180;46834;51.100;6.886;2023-03-07T01:24:08;99402.00;;;8.60
60966;BMP180;46834;51.100;6.886;2023-03-07T01:26:35;99410.00;;;8.60
60966;BMP180;46834;51.100;6.886;2023-03-07T01:29:04;99405.00;;;8.60
60966;BMP180;46834;51.100;6.886;2023-03-07T01:31:30;99402.00;;;8.60
60966;BMP180;46834;51.100;6.886;2023-03-07T01:33:57;99400.00;;;8.60
60966;BMP180;46834;51.100;6.886;2023-03-07T01:36:29;99382.00;;;8.60
60966;BMP180;46834;51.100;6.886;2023-03-07T01:41:33;99388.00;;;8.60
60966;BMP180;46834;51.100;6.886;2023-03-07T01:44:01;99387.00;;;8.60
60966;BMP180;46834;51.100;6.886;2023-03-07T01:46:38;99389.00;;;8.60
60966;BMP180;46834;51.100;6.886;2023-03-07T01:49:30;99393.00;;;8.60
60966;BMP180;46834;51.100;6.886;2023-03-07T01:52:12;99391.00;;;8.60
60966;BMP180;46834;51.100;6.886;2023-03-07T01:54:44;99387.00;;;8.60
60966;BMP180;46834;51.100;6.886;2023-03-07T01:57:15;99388.00;;;8.60
60966;BMP180;46834;51.100;6.886;2023-03-07T01:59:46;99367.00;;;8.60
60966;BMP180;46834;51.100;6.886;2023-03-07T02:02:15;99369.00;;;8.60
60966;BMP180;46834;51.100;6.886;2023-03-07T02:05:02;99377.00;;;8.60
60966;BMP180;46834;51.100;6.886;2023-03-07T02:07:36;99381.00;;;8.60
60966;BMP180;46834;51.100;6.886;2023-03-07T02:10:05;99364.00;;;8.60
60966;BMP180;46834;51.100;6.886;2023-03-07T02:12:31;99370.00;;;8.70
60966;BMP180;46834;51.100;6.886;2023-03-07T02:14:57;99363.00;;;8.70
60966;BMP180;46834;51.100;6.886;2023-03-07T02:17:23;99368.00;;;8.70
60966;BMP180;46834;51.100;6.886;2023-03-07T02:20:33;99352.00;;;8.60
60966;BMP180;46834;51.100;6.886;2023-03-07T02:23:01;99355.00;;;8.60
60966;BMP180;46834;51.100;6.886;2023-03-07T02:26:00;99354.00;;;8.60
60966;BMP180;46834;51.100;6.886;2023-03-07T02:28:30;99352.00;;;8.60
60966;BMP180;46834;51.100;6.886;2023-03-07T02:31:06;99352.00;;;8.60
60966;BMP180;46834;51.100;6.886;2023-03-07T02:33:32;99339.00;;;8.60
60966;BMP180;46834;51.100;6.886;2023-03-07T02:36:08;99327.00;;;8.60
60966;BMP180;46834;51.100;6.886;2023-03-07T02:38:37;99322.00;;;8.60
60966;BMP180;46834;51.100;6.886;2023-03-07T02:41:06;99327.00;;;8.60
60966;BMP180;46834;51.100;6.886;2023-03-07T02:43:33;99323.00;;;8.60
60966;BMP180;46834;51.100;6.886;2023-03-07T02:45:59;99326.00;;;8.60
60966;BMP180;46834;51.100;6.886;2023-03-07T02:48:24;99319.00;;;8.60
60966;BMP180;46834;51.100;6.886;2023-03-07T02:50:50;99321.00;;;8.60
60966;BMP180;46834;51.100;6.886;2023-03-07T02:53:16;99313.00;;;8.60
60966;BMP180;46834;51.100;6.886;2023-03-07T02:55:41;99322.00;;;8.60
60966;BMP180;46834;51.100;6.886;2023-03-07T02:58:07;99326.00;;;8.70
60966;BMP180;46834;51.100;6.886;2023-03-07T03:00:33;99327.00;;;8.60
60966;BMP180;46834;51.100;6.886;2023-03-07T03:02:59;99335.00;;;8.70
60966;BMP180;46834;51.100;6.886;2023-03-07T03:05:25;99331.00;;;8.70
60966;BMP180;46834;51.100;6.886;2023-03-07T03:07:51;99306.00;;;8.60
60966;BMP180;46834;51.100;6.886;2023-03-07T03:10:17;99327.00;;;8.70
60966;BMP180;46834;51.100;6.886;2023-03-07T03:12:43;99316.00;;;8.70
60966;BMP180;46834;51.100;6.886;2023-03-07T03:15:10;99323.00;;;8.70
60966;BMP180;46834;51.100;6.886;2023-03-07T03:17:35;99315.00;;;8.60
60966;BMP180;46834;51.100;6.886;2023-03-07T03:20:02;99324.00;;;8.70
60966;BMP180;46834;51.100;6.886;2023-03-07T03:22:32;99321.00;;;8.70
60966;BMP180;46834;51.100;6.886;2023-03-07T03:24:58;99327.00;;;8.70
60966;BMP180;46834;51.100;6.886;2023-03-07T03:27:23;99318.00;;;8.70
60966;BMP180;46834;51.100;6.886;2023-03-07T03:29:52;99305.00;;;8.60
60966;BMP180;46834;51.100;6.886;2023-03-07T03:32:18;99310.00;;;8.70
60966;BMP180;46834;51.100;6.886;2023-03-07T03:34:44;99315.00;;;8.70
60966;BMP180;46834;51.100;6.886;2023-03-07T03:37:09;99305.00;;;8.70
60966;BMP180;46834;51.100;6.886;2023-03-07T03:39:35;99310.00;;;8.70
60966;BMP180;46834;51.100;6.886;2023-03-07T03:42:02;99309.00;;;8.70
60966;BMP180;46834;51.100;6.886;2023-03-07T03:44:28;99293.00;;;8.70
60966;BMP180;46834;51.100;6.886;2023-03-07T03:46:54;99289.00;;;8.70
60966;BMP180;46834;51.100;6.886;2023-03-07T03:49:20;99285.00;;;8.70
60966;BMP180;46834;51.100;6.886;2023-03-07T03:51:45;99291.00;;;8.70
60966;BMP180;46834;51.100;6.886;2023-03-07T03:54:11;99291.00;;;8.70
60966;BMP180;46834;51.100;6.886;2023-03-07T03:56:37;99299.00;;;8.70
60966;BMP180;46834;51.100;6.886;2023-03-07T03:59:03;99294.00;;;8.70
60966;BMP180;46834;51.100;6.886;2023-03-07T04:01:29;99291.00;;;8.70
60966;BMP180;46834;51.100;6.886;2023-03-07T04:03:56;99296.00;;;8.70
60966;BMP180;46834;51.100;6.886;2023-03-07T04:06:28;99284.00;;;8.60
60966;BMP180;46834;51.100;6.886;2023-03-07T04:08:55;99276.00;;;8.60
60966;BMP180;46834;51.100;6.886;2023-03-07T04:11:23;99262.00;;;8.60
60966;BMP180;46834;51.100;6.886;2023-03-07T04:13:49;99269.00;;;8.60
60966;BMP180;46834;51.100;6.886;2023-03-07T04:16:16;99275.00;;;8.60
60966;BMP180;46834;51.100;6.886;2023-03-07T04:18:42;99274.00;;;8.60
60966;BMP180;46834;51.100;6.886;2023-03-07T04:21:08;99260.00;;;8.60
60966;BMP180;46834;51.100;6.886;2023-03-07T04:23:36;99261.00;;;8.60
60966;BMP180;46834;51.100;6.886;2023-03-07T04:26:05;99261.00;;;8.60
60966;BMP180;46834;51.100;6.886;2023-03-07T04:28:37;99250.00;;;8.60
60966;BMP180;46834;51.100;6.886;2023-03-07T04:31:28;99250.00;;;8.50
60966;BMP180;46834;51.100;6.886;2023-03-07T04:33:55;99250.00;;;8.60
60966;BMP180;46834;51.100;6.886;2023-03-07T04:36:22;99258.00;;;8.60
60966;BMP180;46834;51.100;6.886;2023-03-07T04:38:49;99239.00;;;8.60
60966;BMP180;46834;51.100;6.886;2023-03-07T04:41:18;99243.00;;;8.50
60966;BMP180;46834;51.100;6.886;2023-03-07T04:43:44;99238.00;;;8.60
60966;BMP180;46834;51.100;6.886;2023-03-07T04:46:12;99235.00;;;8.60
60966;BMP180;46834;51.100;6.886;2023-03-07T04:48:38;99228.00;;;8.60
60966;BMP180;46834;51.100;6.886;2023-03-07T04:51:04;99230.00;;;8.60
60966;BMP180;46834;51.100;6.886;2023-03-07T04:53:30;99236.00;;;8.60
60966;BMP180;46834;51.100;6.886;2023-03-07T04:56:02;99231.00;;;8.50
60966;BMP180;46834;51.100;6.886;2023-03-07T04:58:29;99220.00;;;8.60
60966;BMP180;46834;51.100;6.886;2023-03-07T05:00:56;99217.00;;;8.60
60966;BMP180;46834;51.100;6.886;2023-03-07T05:03:23;99224.00;;;8.50
60966;BMP180;46834;51.100;6.886;2023-03-07T05:05:51;99217.00;;;8.60
60966;BMP180;46834;51.100;6.886;2023-03-07T05:08:17;99221.00;;;8.60
60966;BMP180;46834;51.100;6.886;2023-03-07T05:10:42;99222.00;;;8.60
60966;BMP180;46834;51.100;6.886;2023-03-07T05:13:08;99223.00;;;8.60
60966;BMP180;46834;51.100;6.886;2023-03-07T05:15:34;99205.00;;;8.50
60966;BMP180;46834;51.100;6.886;2023-03-07T05:18:00;99207.00;;;8.60
60966;BMP180;46834;51.100;6.886;2023-03-07T05:20:27;99206.00;;;8.60
60966;BMP180;46834;51.100;6.886;2023-03-07T05:22:55;99200.00;;;8.50
60966;BMP180;46834;51.100;6.886;2023-03-07T05:25:21;99212.00;;;8.50
60966;BMP180;46834;51.100;6.886;2023-03-07T05:27:47;99206.00;;;8.50
60966;BMP180;46834;51.100;6.886;2023-03-07T05:30:13;99198.00;;;8.50
60966;BMP180;46834;51.100;6.886;2023-03-07T05:32:41;99193.00;;;8.50
60966;BMP180;46834;51.100;6.886;2023-03-07T05:35:09;99194.00;;;8.50
60966;BMP180;46834;51.100;6.886;2023-03-07T05:37:35;99196.00;;;8.50
60966;BMP180;46834;51.100;6.886;2023-03-07T05:40:01;99188.00;;;8.50
60966;BMP180;46834;51.100;6.886;2023-03-07T05:42:26;99199.00;;;8.50
60966;BMP180;46834;51.100;6.886;2023-03-07T05:44:52;99187.00;;;8.50
60966;BMP180;46834;51.100;6.886;2023-03-07T05:47:17;99199.00;;;8.50
60966;BMP180;46834;51.100;6.886;2023-03-07T05:49:43;99189.00;;;8.50
60966;BMP180;46834;51.100;6.886;2023-03-07T05:52:09;99201.00;;;8.50
60966;BMP180;46834;51.100;6.886;2023-03-07T05:54:34;99201.00;;;8.50
60966;BMP180;46834;51.100;6.886;2023-03-07T05:57:00;99193.00;;;8.50
60966;BMP180;46834;51.100;6.886;2023-03-07T05:59:25;99195.00;;;8.50
60966;BMP180;46834;51.100;6.886;2023-03-07T06:01:51;99184.00;;;8.50
60966;BMP180;46834;51.100;6.886;2023-03-07T06:04:17;99170.00;;;8.50
60966;BMP180;46834;51.100;6.886;2023-03-07T06:06:42;99170.00;;;8.50
60966;BMP180;46834;51.100;6.886;2023-03-07T06:09:08;99178.00;;;8.50
60966;BMP180;46834;51.100;6.886;2023-03-07T06:11:34;99185.00;;;8.50
60966;BMP180;46834;51.100;6.886;2023-03-07T06:13:59;99202.00;;;8.50
60966;BMP180;46834;51.100;6.886;2023-03-07T06:16:25;99165.00;;;8.50
60966;BMP180;46834;51.100;6.886;2023-03-07T06:18:51;99196.00;;;8.50
60966;BMP180;46834;51.100;6.886;2023-03-07T06:21:17;99183.00;;;8.50
60966;BMP180;46834;51.100;6.886;2023-03-07T06:23:43;99181.00;;;8.50
60966;BMP180;46834;51.100;6.886;2023-03-07T06:26:09;99184.00;;;8.50
60966;BMP180;46834;51.100;6.886;2023-03-07T06:28:40;99183.00;;;8.50
60966;BMP180;46834;51.100;6.886;2023-03-07T06:31:09;99192.00;;;8.50
60966;BMP180;46834;51.100;6.886;2023-03-07T06:33:36;99172.00;;;8.50
60966;BMP180;46834;51.100;6.886;2023-03-07T06:36:13;99191.00;;;8.40
60966;BMP180;46834;51.100;6.886;2023-03-07T06:38:39;99179.00;;;8.50
60966;BMP180;46834;51.100;6.886;2023-03-07T06:41:06;99187.00;;;8.50
60966;BMP180;46834;51.100;6.886;2023-03-07T06:43:32;99172.00;;;8.50
60966;BMP180;46834;51.100;6.886;2023-03-07T06:45:58;99163.00;;;8.50
60966;BMP180;46834;51.100;6.886;2023-03-07T06:48:25;99174.00;;;8.50
60966;BMP180;46834;51.100;6.886;2023-03-07T06:50:50;99177.00;;;8.50
60966;BMP180;46834;51.100;6.886;2023-03-07T06:53:16;99173.00;;;8.50
60966;BMP180;46834;51.100;6.886;2023-03-07T06:55:42;99180.00;;;8.50
60966;BMP180;46834;51.100;6.886;2023-03-07T06:58:07;99177.00;;;8.50
60966;BMP180;46834;51.100;6.886;2023-03-07T07:00:33;99176.00;;;8.50
60966;BMP180;46834;51.100;6.886;2023-03-07T07:02:59;99164.00;;;8.50
60966;BMP180;46834;51.100;6.886;2023-03-07T07:05:25;99167.00;;;8.50
60966;BMP180;46834;51.100;6.886;2023-03-07T07:07:50;99169.00;;;8.50
60966;BMP180;46834;51.100;6.886;2023-03-07T07:10:16;99163.00;;;8.60
60966;BMP180;46834;51.100;6.886;2023-03-07T07:12:42;99144.00;;;8.60
60966;BMP180;46834;51.100;6.886;2023-03-07T07:15:09;99158.00;;;8.60
60966;BMP180;46834;51.100;6.886;2023-03-07T07:17:35;99163.00;;;8.60
60966;BMP180;46834;51.100;6.886;2023-03-07T07:20:02;99168.00;;;8.60
60966;BMP180;46834;51.100;6.886;2023-03-07T07:22:30;99162.00;;;8.60
60966;BMP180;46834;51.100;6.886;2023-03-07T07:24:56;99153.00;;;8.60
60966;BMP180;46834;51.100;6.886;2023-03-07T07:27:22;99166.00;;;8.60
60966;BMP180;46834;51.100;6.886;2023-03-07T07:29:47;99174.00;;;8.60
60966;BMP180;46834;51.100;6.886;2023-03-07T07:32:13;99149.00;;;8.60
60966;BMP180;46834;51.100;6.886;2023-03-07T07:34:39;99160.00;;;8.60
60966;BMP180;46834;51.100;6.886;2023-03-07T07:37:05;99151.00;;;8.60
60966;BMP180;46834;51.100;6.886;2023-03-07T07:39:31;99147.00;;;8.60
60966;BMP180;46834;51.100;6.886;2023-03-07T07:41:56;99151.00;;;8.60
60966;BMP180;46834;51.100;6.886;2023-03-07T07:44:22;99165.00;;;8.60
60966;BMP180;46834;51.100;6.886;2023-03-07T07:46:48;99152.00;;;8.60
60966;BMP180;46834;51.100;6.886;2023-03-07T07:49:14;99166.00;;;8.70
60966;BMP180;46834;51.100;6.886;2023-03-07T07:51:40;99157.00;;;8.70
60966;BMP180;46834;51.100;6.886;2023-03-07T07:54:09;99170.00;;;8.60
60966;BMP180;46834;51.100;6.886;2023-03-07T07:56:35;99154.00;;;8.70
60966;BMP180;46834;51.100;6.886;2023-03-07T07:59:01;99173.00;;;8.70
60966;BMP180;46834;51.100;6.886;2023-03-07T08:01:27;99163.00;;;8.70
60966;BMP180;46834;51.100;6.886;2023-03-07T08:03:52;99164.00;;;8.70
60966;BMP180;46834;51.100;6.886;2023-03-07T08:06:22;99165.00;;;8.70
60966;BMP180;46834;51.100;6.886;2023-03-07T08:08:49;99160.00;;;8.70
60966;BMP180;46834;51.100;6.886;2023-03-07T08:11:15;99169.00;;;8.70
60966;BMP180;46834;51.100;6.886;2023-03-07T08:13:42;99150.00;;;8.70
60966;BMP180;46834;51.100;6.886;2023-03-07T08:16:20;99183.00;;;8.70
60966;BMP180;46834;51.100;6.886;2023-03-07T08:18:50;99172.00;;;8.70
60966;BMP180;46834;51.100;6.886;2023-03-07T08:21:17;99149.00;;;8.70
60966;BMP180;46834;51.100;6.886;2023-03-07T08:23:42;99168.00;;;8.70
60966;BMP180;46834;51.100;6.886;2023-03-07T08:26:09;99155.00;;;8.70
60966;BMP180;46834;51.100;6.886;2023-03-07T08:28:36;99156.00;;;8.70
60966;BMP180;46834;51.100;6.886;2023-03-07T08:31:15;99158.00;;;8.70
60966;BMP180;46834;51.100;6.886;2023-03-07T08:33:41;99147.00;;;8.70
60966;BMP180;46834;51.100;6.886;2023-03-07T08:36:07;99168.00;;;8.80
60966;BMP180;46834;51.100;6.886;2023-03-07T08:38:34;99166.00;;;8.80
60966;BMP180;46834;51.100;6.886;2023-03-07T08:41:02;99155.00;;;8.80
60966;BMP180;46834;51.100;6.886;2023-03-07T08:43:30;99166.00;;;8.80
60966;BMP180;46834;51.100;6.886;2023-03-07T08:45:57;99151.00;;;8.80
60966;BMP180;46834;51.100;6.886;2023-03-07T08:48:23;99155.00;;;8.80
60966;BMP180;46834;51.100;6.886;2023-03-07T08:50:50;99156.00;;;8.80
60966;BMP180;46834;51.100;6.886;2023-03-07T08:53:15;99154.00;;;8.80
60966;BMP180;46834;51.100;6.886;2023-03-07T08:55:42;99163.00;;;8.90
60966;BMP180;46834;51.100;6.886;2023-03-07T08:58:08;99161.00;;;8.90
60966;BMP180;46834;51.100;6.886;2023-03-07T09:00:38;99148.00;;;8.90
60966;BMP180;46834;51.100;6.886;2023-03-07T09:03:05;99147.00;;;8.90
60966;BMP180;46834;51.100;6.886;2023-03-07T09:05:32;99147.00;;;8.90
60966;BMP180;46834;51.100;6.886;2023-03-07T09:08:00;99151.00;;;8.90
60966;BMP180;46834;51.100;6.886;2023-03-07T09:10:26;99141.00;;;8.90
60966;BMP180;46834;51.100;6.886;2023-03-07T09:12:52;99141.00;;;8.90
60966;BMP180;46834;51.100;6.886;2023-03-07T09:15:20;99160.00;;;9.00
60966;BMP180;46834;51.100;6.886;2023-03-07T09:17:46;99157.00;;;9.00
60966;BMP180;46834;51.100;6.886;2023-03-07T09:20:12;99159.00;;;9.00
60966;BMP180;46834;51.100;6.886;2023-03-07T09:22:38;99161.00;;;9.00
60966;BMP180;46834;51.100;6.886;2023-03-07T09:25:04;99155.00;;;9.00
60966;BMP180;46834;51.100;6.886;2023-03-07T09:27:30;99160.00;;;9.00
60966;BMP180;46834;51.100;6.886;2023-03-07T09:29:56;99157.00;;;9.00
60966;BMP180;46834;51.100;6.886;2023-03-07T09:32:22;99164.00;;;9.00
60966;BMP180;46834;51.100;6.886;2023-03-07T09:34:47;99167.00;;;9.00
60966;BMP180;46834;51.100;6.886;2023-03-07T09:37:13;99140.00;;;9.00
60966;BMP180;46834;51.100;6.886;2023-03-07T09:39:39;99160.00;;;9.10
60966;BMP180;46834;51.100;6.886;2023-03-07T09:42:53;99169.00;;;9.10
60966;BMP180;46834;51.100;6.886;2023-03-07T09:45:37;99161.00;;;9.10
60966;BMP180;46834;51.100;6.886;2023-03-07T09:49:00;99158.00;;;9.10
60966;BMP180;46834;51.100;6.886;2023-03-07T09:51:37;99149.00;;;9.10
60966;BMP180;46834;51.100;6.886;2023-03-07T09:56:54;99149.00;;;9.20
60966;BMP180;46834;51.100;6.886;2023-03-07T09:59:47;99152.00;;;9.20
60966;BMP180;46834;51.100;6.886;2023-03-07T10:02:44;99148.00;;;9.20
60966;BMP180;46834;51.100;6.886;2023-03-07T10:05:31;99144.00;;;9.20
60966;BMP180;46834;51.100;6.886;2023-03-07T10:08:03;99159.00;;;9.30
60966;BMP180;46834;51.100;6.886;2023-03-07T10:10:42;99156.00;;;9.20
60966;BMP180;46834;51.100;6.886;2023-03-07T10:16:23;99146.00;;;9.30
60966;BMP180;46834;51.100;6.886;2023-03-07T10:22:18;99143.00;;;9.20
60966;BMP180;46834;51.100;6.886;2023-03-07T10:27:45;99158.00;;;9.30
60966;BMP180;46834;51.100;6.886;2023-03-07T10:30:20;99157.00;;;9.20
60966;BMP180;46834;51.100;6.886;2023-03-07T10:32:51;99152.00;;;9.30
60966;BMP180;46834;51.100;6.886;2023-03-07T10:35:23;99172.00;;;9.30
60966;BMP180;46834;51.100;6.886;2023-03-07T10:38:03;99163.00;;;9.30
60966;BMP180;46834;51.100;6.886;2023-03-07T10:41:00;99178.00;;;9.20
60966;BMP180;46834;51.100;6.886;2023-03-07T10:43:32;99184.00;;;9.20
60966;BMP180;46834;51.100;6.886;2023-03-07T10:49:15;99193.00;;;8.90
60966;BMP180;46834;51.100;6.886;2023-03-07T10:54:36;99198.00;;;8.70
60966;BMP180;46834;51.100;6.886;2023-03-07T10:59:36;99205.00;;;8.50
60966;BMP180;46834;51.100;6.886;2023-03-07T11:05:26;99196.00;;;8.40
60966;BMP180;46834;51.100;6.886;2023-03-07T11:07:56;99185.00;;;8.40
60966;BMP180;46834;51.100;6.886;2023-03-07T11:10:34;99209.00;;;8.40
60966;BMP180;46834;51.100;6.886;2023-03-07T11:13:13;99202.00;;;8.40
60966;BMP180;46834;51.100;6.886;2023-03-07T11:15:39;99202.00;;;8.40
60966;BMP180;46834;51.100;6.886;2023-03-07T11:18:30;99195.00;;;8.30
60966;BMP180;46834;51.100;6.886;2023-03-07T11:20:57;99198.00;;;8.40
60966;BMP180;46834;51.100;6.886;2023-03-07T11:23:28;99200.00;;;8.40
60966;BMP180;46834;51.100;6.886;2023-03-07T11:26:20;99193.00;;;8.40
60966;BMP180;46834;51.100;6.886;2023-03-07T11:28:46;99194.00;;;8.40
60966;BMP180;46834;51.100;6.886;2023-03-07T11:31:26;99204.00;;;8.40
60966;BMP180;46834;51.100;6.886;2023-03-07T11:36:34;99202.00;;;8.50
60966;BMP180;46834;51.100;6.886;2023-03-07T11:39:09;99199.00;;;8.50
60966;BMP180;46834;51.100;6.886;2023-03-07T11:41:47;99206.00;;;8.50
60966;BMP180;46834;51.100;6.886;2023-03-07T11:44:56;99199.00;;;8.50
60966;BMP180;46834;51.100;6.886;2023-03-07T11:50:29;99206.00;;;8.50
60966;BMP180;46834;51.100;6.886;2023-03-07T11:53:56;99196.00;;;8.50
60966;BMP180;46834;51.100;6.886;2023-03-07T11:56:35;99197.00;;;8.40
60966;BMP180;46834;51.100;6.886;2023-03-07T11:59:54;99195.00;;;8.40
60966;BMP180;46834;51.100;6.886;2023-03-07T12:08:39;99195.00;;;8.40
60966;BMP180;46834;51.100;6.886;2023-03-07T12:17:07;99186.00;;;8.40
60966;BMP180;46834;51.100;6.886;2023-03-07T12:22:38;99191.00;;;8.40
60966;BMP180;46834;51.100;6.886;2023-03-07T12:25:29;99198.00;;;8.40
60966;BMP180;46834;51.100;6.886;2023-03-07T12:28:42;99197.00;;;8.40
60966;BMP180;46834;51.100;6.886;2023-03-07T12:31:37;99193.00;;;8.40
60966;BMP180;46834;51.100;6.886;2023-03-07T12:36:51;99187.00;;;8.40
60966;BMP180;46834;51.100;6.886;2023-03-07T12:42:34;99192.00;;;8.40
60966;BMP180;46834;51.100;6.886;2023-03-07T12:45:18;99186.00;;;8.40
60966;BMP180;46834;51.100;6.886;2023-03-07T12:54:09;99186.00;;;8.50
60966;BMP180;46834;51.100;6.886;2023-03-07T12:57:16;99175.00;;;8.50
60966;BMP180;46834;51.100;6.886;2023-03-07T12:59:44;99189.00;;;8.60
60966;BMP180;46834;51.100;6.886;2023-03-07T13:02:28;99189.00;;;8.50
60966;BMP180;46834;51.100;6.886;2023-03-07T13:04:54;99187.00;;;8.60
60966;BMP180;46834;51.100;6.886;2023-03-07T13:07:31;99188.00;;;8.60
60966;BMP180;46834;51.100;6.886;2023-03-07T13:10:02;99182.00;;;8.60
60966;BMP180;46834;51.100;6.886;2023-03-07T13:12:35;99186.00;;;8.60
60966;BMP180;46834;51.100;6.886;2023-03-07T13:17:57;99168.00;;;8.60
60966;BMP180;46834;51.100;6.886;2023-03-07T13:20:37;99181.00;;;8.60
60966;BMP180;46834;51.100;6.886;2023-03-07T13:23:25;99192.00;;;8.60
60966;BMP180;46834;51.100;6.886;2023-03-07T13:25:57;99179.00;;;8.60
60966;BMP180;46834;51.100;6.886;2023-03-07T13:31:24;99191.00;;;8.60
60966;BMP180;46834;51.100;6.886;2023-03-07T13:33:52;99196.00;;;8.70
60966;BMP180;46834;51.100;6.886;2023-03-07T13:36:36;99182.00;;;8.60
60966;BMP180;46834;51.100;6.886;2023-03-07T13:39:36;99167.00;;;8.60
60966;BMP180;46834;51.100;6.886;2023-03-07T13:42:02;99187.00;;;8.70
60966;BMP180;46834;51.100;6.886;2023-03-07T13:44:38;99201.00;;;8.60
60966;BMP180;46834;51.100;6.886;2023-03-07T13:47:40;99185.00;;;8.60
60966;BMP180;46834;51.100;6.886;2023-03-07T13:53:03;99195.00;;;8.70
60966;BMP180;46834;51.100;6.886;2023-03-07T13:55:40;99192.00;;;8.60
60966;BMP180;46834;51.100;6.886;2023-03-07T13:58:37;99195.00;;;8.60
60966;BMP180;46834;51.100;6.886;2023-03-07T14:01:13;99181.00;;;8.70
60966;BMP180;46834;51.100;6.886;2023-03-07T14:03:51;99195.00;;;8.70
60966;BMP180;46834;51.100;6.886;2023-03-07T14:06:32;99204.00;;;8.70
60966;BMP180;46834;51.100;6.886;2023-03-07T14:09:00;99197.00;;;8.70
60966;BMP180;46834;51.100;6.886;2023-03-07T14:11:45;99194.00;;;8.70
60966;BMP180;46834;51.100;6.886;2023-03-07T14:17:13;99207.00;;;8.70
60966;BMP180;46834;51.100;6.886;2023-03-07T14:22:53;99219.00;;;8.60
60966;BMP180;46834;51.100;6.886;2023-03-07T14:25:46;99215.00;;;8.60
60966;BMP180;46834;51.100;6.886;2023-03-07T14:28:26;99220.00;;;8.60
60966;BMP180;46834;51.100;6.886;2023-03-07T14:30:56;99214.00;;;8.60
60966;BMP180;46834;51.100;6.886;2023-03-07T14:33:37;99228.00;;;8.60
60966;BMP180;46834;51.100;6.886;2023-03-07T14:36:20;99222.00;;;8.60
60966;BMP180;46834;51.100;6.886;2023-03-07T14:38:48;99218.00;;;8.60
60966;BMP180;46834;51.100;6.886;2023-03-07T14:41:45;99234.00;;;8.50
60966;BMP180;46834;51.100;6.886;2023-03-07T14:44:44;99222.00;;;8.50
60966;BMP180;46834;51.100;6.886;2023-03-07T14:47:53;99222.00;;;8.50
60966;BMP180;46834;51.100;6.886;2023-03-07T14:50:26;99233.00;;;8.50
60966;BMP180;46834;51.100;6.886;2023-03-07T14:53:06;99228.00;;;8.40
60966;BMP180;46834;51.100;6.886;2023-03-07T14:55:38;99223.00;;;8.50
60966;BMP180;46834;51.100;6.886;2023-03-07T14:58:05;99222.00;;;8.50
60966;BMP180;46834;51.100;6.886;2023-03-07T15:00:31;99224.00;;;8.50
60966;BMP180;46834;51.100;6.886;2023-03-07T15:03:06;99220.00;;;8.50
60966;BMP180;46834;51.100;6.886;2023-03-07T15:05:57;99231.00;;;8.40
60966;BMP180;46834;51.100;6.886;2023-03-07T15:11:18;99237.00;;;8.40
60966;BMP180;46834;51.100;6.886;2023-03-07T15:14:04;99241.00;;;8.40
60966;BMP180;46834;51.100;6.886;2023-03-07T15:16:36;99244.00;;;8.40
60966;BMP180;46834;51.100;6.886;2023-03-07T15:21:49;99233.00;;;8.40
60966;BMP180;46834;51.100;6.886;2023-03-07T15:24:20;99245.00;;;8.40
60966;BMP180;46834;51.100;6.886;2023-03-07T15:26:54;99238.00;;;8.40
60966;BMP180;46834;51.100;6.886;2023-03-07T15:29:26;99240.00;;;8.40
60966;BMP180;46834;51.100;6.886;2023-03-07T15:32:05;99242.00;;;8.40
60966;BMP180;46834;51.100;6.886;2023-03-07T15:34:38;99236.00;;;8.40
60966;BMP180;46834;51.100;6.886;2023-03-07T15:37:27;99245.00;;;8.40
60966;BMP180;46834;51.100;6.886;2023-03-07T15:39:57;99253.00;;;8.40
60966;BMP180;46834;51.100;6.886;2023-03-07T15:42:23;99239.00;;;8.40
60966;BMP180;46834;51.100;6.886;2023-03-07T15:45:01;99237.00;;;8.40
60966;BMP180;46834;51.100;6.886;2023-03-07T15:47:30;99255.00;;;8.40
60966;BMP180;46834;51.100;6.886;2023-03-07T15:50:00;99254.00;;;8.40
60966;BMP180;46834;51.100;6.886;2023-03-07T15:52:37;99248.00;;;8.40
60966;BMP180;46834;51.100;6.886;2023-03-07T15:55:18;99253.00;;;8.40
60966;BMP180;46834;51.100;6.886;2023-03-07T15:57:59;99265.00;;;8.40
60966;BMP180;46834;51.100;6.886;2023-03-07T16:00:36;99260.00;;;8.30
60966;BMP180;46834;51.100;6.886;2023-03-07T16:03:29;99259.00;;;8.30
60966;BMP180;46834;51.100;6.886;2023-03-07T16:05:58;99248.00;;;8.40